sensor_id;sensor_type;location;lat;lon;timestamp;P1;durP1;ratioP1;P2;durP2;ratioP2
15643;SDS011;7921;43.586;1.408;2023-06-22T00:01:47;1.73;;;1.35;;
15643;SDS011;7921;43.586;1.408;2023-06-22T00:04:12;1.58;;;1.40;;
15643;SDS011;7921;43.586;1.408;2023-06-22T00:06:38;1.65;;;1.55;;
15643;SDS011;7921;43.586;1.408;2023-06-22T00:09:03;2.67;;;1.58;;
15643;SDS011;7921;43.586;1.408;2023-06-22T00:11:28;1.60;;;1.50;;
15643;SDS011;7921;43.586;1.408;2023-06-22T00:13:54;1.90;;;1.70;;
15643;SDS011;7921;43.586;1.408;2023-06-22T00:16:19;1.50;;;1.40;;
15643;SDS011;7921;43.586;1.408;2023-06-22T00:18:45;2.25;;;1.50;;
15643;SDS011;7921;43.586;1.408;2023-06-22T00:21:12;1.40;;;1.30;;
15643;SDS011;7921;43.586;1.408;2023-06-22T00:23:37;3.00;;;1.70;;
15643;SDS011;7921;43.586;1.408;2023-06-22T00:26:03;1.60;;;1.50;;
15643;SDS011;7921;43.586;1.408;2023-06-22T00:28:28;2.03;;;1.45;;
15643;SDS011;7921;43.586;1.408;2023-06-22T00:30:54;1.95;;;1.83;;
15643;SDS011;7921;43.586;1.408;2023-06-22T00:33:19;1.90;;;1.50;;
15643;SDS011;7921;43.586;1.408;2023-06-22T00:35:44;2.00;;;1.80;;
15643;SDS011;7921;43.586;1.408;2023-06-22T00:38:10;3.40;;;1.80;;
15643;SDS011;7921;43.586;1.408;2023-06-22T00:40:35;1.65;;;1.52;;
15643;SDS011;7921;43.586;1.408;2023-06-22T00:43:01;1.85;;;1.70;;
15643;SDS011;7921;43.586;1.408;2023-06-22T00:45:27;1.88;;;1.70;;
15643;SDS011;7921;43.586;1.408;2023-06-22T00:47:53;2.33;;;1.67;;
15643;SDS011;7921;43.586;1.408;2023-06-22T00:50:20;2.17;;;1.50;;
15643;SDS011;7921;43.586;1.408;2023-06-22T00:52:54;2.55;;;1.90;;
15643;SDS011;7921;43.586;1.408;2023-06-22T00:55:21;1.90;;;1.80;;
15643;SDS011;7921;43.586;1.408;2023-06-22T00:57:47;1.85;;;1.75;;
15643;SDS011;7921;43.586;1.408;2023-06-22T01:00:14;1.73;;;1.63;;
15643;SDS011;7921;43.586;1.408;2023-06-22T01:02:42;2.33;;;1.60;;
15643;SDS011;7921;43.586;1.408;2023-06-22T01:05:10;2.28;;;1.90;;
15643;SDS011;7921;43.586;1.408;2023-06-22T01:07:45;2.67;;;1.48;;
15643;SDS011;7921;43.586;1.408;2023-06-22T01:13:01;2.70;;;1.45;;
15643;SDS011;7921;43.586;1.408;2023-06-22T01:15:28;3.08;;;1.20;;
15643;SDS011;7921;43.586;1.408;2023-06-22T01:17:55;2.03;;;1.40;;
15643;SDS011;7921;43.586;1.408;2023-06-22T01:20:22;1.42;;;1.30;;
15643;SDS011;7921;43.586;1.408;2023-06-22T01:28:23;2.92;;;1.23;;
15643;SDS011;7921;43.586;1.408;2023-06-22T01:31:06;1.40;;;1.30;;
15643;SDS011;7921;43.586;1.408;2023-06-22T01:33:35;1.30;;;1.20;;
15643;SDS011;7921;43.586;1.408;2023-06-22T01:36:02;1.40;;;1.05;;
15643;SDS011;7921;43.586;1.408;2023-06-22T01:38:28;2.40;;;1.08;;
15643;SDS011;7921;43.586;1.408;2023-06-22T01:40:54;2.03;;;1.10;;
15643;SDS011;7921;43.586;1.408;2023-06-22T01:43:20;1.60;;;0.80;;
15643;SDS011;7921;43.586;1.408;2023-06-22T01:45:48;1.00;;;0.77;;
15643;SDS011;7921;43.586;1.408;2023-06-22T01:48:13;1.83;;;1.08;;
15643;SDS011;7921;43.586;1.408;2023-06-22T01:50:39;0.77;;;0.77;;
15643;SDS011;7921;43.586;1.408;2023-06-22T01:53:05;1.98;;;1.02;;
15643;SDS011;7921;43.586;1.408;2023-06-22T01:55:31;1.67;;;0.80;;
15643;SDS011;7921;43.586;1.408;2023-06-22T01:57:57;1.35;;;0.98;;
15643;SDS011;7921;43.586;1.408;2023-06-22T02:00:22;3.65;;;1.00;;
15643;SDS011;7921;43.586;1.408;2023-06-22T02:02:56;0.85;;;0.85;;
15643;SDS011;7921;43.586;1.408;2023-06-22T02:05:25;1.63;;;0.60;;
15643;SDS011;7921;43.586;1.408;2023-06-22T02:08:29;0.88;;;0.82;;
15643;SDS011;7921;43.586;1.408;2023-06-22T02:10:48;0.98;;;0.70;;
15643;SDS011;7921;43.586;1.408;2023-06-22T02:13:14;1.13;;;0.70;;
15643;SDS011;7921;43.586;1.408;2023-06-22T02:15:40;1.35;;;0.82;;
15643;SDS011;7921;43.586;1.408;2023-06-22T02:18:06;1.63;;;0.60;;
15643;SDS011;7921;43.586;1.408;2023-06-22T02:20:32;1.10;;;0.70;;
15643;SDS011;7921;43.586;1.408;2023-06-22T02:22:57;0.90;;;0.80;;
15643;SDS011;7921;43.586;1.408;2023-06-22T02:25:23;1.95;;;0.70;;
15643;SDS011;7921;43.586;1.408;2023-06-22T02:27:48;0.70;;;0.70;;
15643;SDS011;7921;43.586;1.408;2023-06-22T02:30:14;0.65;;;0.60;;
15643;SDS011;7921;43.586;1.408;2023-06-22T02:32:41;2.13;;;0.90;;
15643;SDS011;7921;43.586;1.408;2023-06-22T02:35:07;0.80;;;0.80;;
15643;SDS011;7921;43.586;1.408;2023-06-22T02:37:33;3.28;;;0.90;;
15643;SDS011;7921;43.586;1.408;2023-06-22T02:40:00;1.10;;;0.65;;
15643;SDS011;7921;43.586;1.408;2023-06-22T02:42:26;0.73;;;0.70;;
15643;SDS011;7921;43.586;1.408;2023-06-22T02:44:51;1.25;;;0.73;;
15643;SDS011;7921;43.586;1.408;2023-06-22T02:47:16;0.82;;;0.70;;
15643;SDS011;7921;43.586;1.408;2023-06-22T02:49:42;2.20;;;0.63;;
15643;SDS011;7921;43.586;1.408;2023-06-22T02:52:09;1.20;;;0.80;;
15643;SDS011;7921;43.586;1.408;2023-06-22T02:54:35;0.52;;;0.52;;
15643;SDS011;7921;43.586;1.408;2023-06-22T02:57:00;1.10;;;1.00;;
15643;SDS011;7921;43.586;1.408;2023-06-22T02:59:28;1.77;;;0.73;;
15643;SDS011;7921;43.586;1.408;2023-06-22T03:01:53;0.70;;;0.70;;
15643;SDS011;7921;43.586;1.408;2023-06-22T03:04:19;2.03;;;0.90;;
15643;SDS011;7921;43.586;1.408;2023-06-22T03:06:44;1.38;;;1.00;;
15643;SDS011;7921;43.586;1.408;2023-06-22T03:09:15;1.70;;;0.90;;
15643;SDS011;7921;43.586;1.408;2023-06-22T03:11:41;0.98;;;0.85;;
15643;SDS011;7921;43.586;1.408;2023-06-22T03:14:06;2.25;;;1.02;;
15643;SDS011;7921;43.586;1.408;2023-06-22T03:16:31;1.20;;;1.10;;
15643;SDS011;7921;43.586;1.408;2023-06-22T03:18:58;1.35;;;1.00;;
15643;SDS011;7921;43.586;1.408;2023-06-22T03:21:25;3.30;;;1.10;;
15643;SDS011;7921;43.586;1.408;2023-06-22T03:23:52;2.72;;;1.10;;
15643;SDS011;7921;43.586;1.408;2023-06-22T03:26:17;1.30;;;0.85;;
15643;SDS011;7921;43.586;1.408;2023-06-22T03:28:43;0.85;;;0.80;;
15643;SDS011;7921;43.586;1.408;2023-06-22T03:31:08;1.40;;;1.20;;
15643;SDS011;7921;43.586;1.408;2023-06-22T03:33:34;1.35;;;1.20;;
15643;SDS011;7921;43.586;1.408;2023-06-22T03:35:59;2.17;;;1.17;;
15643;SDS011;7921;43.586;1.408;2023-06-22T03:38:24;2.28;;;1.42;;
15643;SDS011;7921;43.586;1.408;2023-06-22T03:40:50;1.23;;;1.13;;
15643;SDS011;7921;43.586;1.408;2023-06-22T03:43:15;2.55;;;1.50;;
15643;SDS011;7921;43.586;1.408;2023-06-22T03:45:41;1.35;;;1.20;;
15643;SDS011;7921;43.586;1.408;2023-06-22T03:48:06;3.03;;;1.48;;
15643;SDS011;7921;43.586;1.408;2023-06-22T03:50:31;1.48;;;1.20;;
15643;SDS011;7921;43.586;1.408;2023-06-22T03:52:57;1.70;;;1.60;;
15643;SDS011;7921;43.586;1.408;2023-06-22T03:55:22;2.00;;;1.60;;
15643;SDS011;7921;43.586;1.408;2023-06-22T03:57:48;2.10;;;1.65;;
15643;SDS011;7921;43.586;1.408;2023-06-22T04:00:14;3.70;;;1.63;;
15643;SDS011;7921;43.586;1.408;2023-06-22T04:02:41;2.15;;;1.95;;
15643;SDS011;7921;43.586;1.408;2023-06-22T04:05:08;1.77;;;1.67;;
15643;SDS011;7921;43.586;1.408;2023-06-22T04:07:34;3.03;;;1.70;;
15643;SDS011;7921;43.586;1.408;2023-06-22T04:09:59;2.08;;;1.98;;
15643;SDS011;7921;43.586;1.408;2023-06-22T04:12:24;2.17;;;1.80;;
15643;SDS011;7921;43.586;1.408;2023-06-22T04:14:50;2.13;;;1.70;;
15643;SDS011;7921;43.586;1.408;2023-06-22T04:17:15;4.68;;;1.92;;
15643;SDS011;7921;43.586;1.408;2023-06-22T04:19:42;1.70;;;1.60;;
15643;SDS011;7921;43.586;1.408;2023-06-22T04:22:08;1.83;;;1.63;;
15643;SDS011;7921;43.586;1.408;2023-06-22T04:24:33;2.55;;;1.52;;
15643;SDS011;7921;43.586;1.408;2023-06-22T04:26:59;4.13;;;1.95;;
15643;SDS011;7921;43.586;1.408;2023-06-22T04:29:27;2.17;;;1.95;;
15643;SDS011;7921;43.586;1.408;2023-06-22T04:31:55;2.17;;;1.83;;
15643;SDS011;7921;43.586;1.408;2023-06-22T04:34:23;1.70;;;1.60;;
15643;SDS011;7921;43.586;1.408;2023-06-22T04:36:51;3.10;;;1.77;;
15643;SDS011;7921;43.586;1.408;2023-06-22T04:39:17;1.52;;;1.42;;
15643;SDS011;7921;43.586;1.408;2023-06-22T04:41:44;2.05;;;1.55;;
15643;SDS011;7921;43.586;1.408;2023-06-22T04:46:35;4.43;;;1.77;;
15643;SDS011;7921;43.586;1.408;2023-06-22T04:49:06;4.30;;;1.90;;
15643;SDS011;7921;43.586;1.408;2023-06-22T04:51:36;2.42;;;2.22;;
15643;SDS011;7921;43.586;1.408;2023-06-22T04:54:05;1.67;;;1.58;;
15643;SDS011;7921;43.586;1.408;2023-06-22T04:56:31;3.00;;;2.10;;
15643;SDS011;7921;43.586;1.408;2023-06-22T04:58:57;2.40;;;2.03;;
15643;SDS011;7921;43.586;1.408;2023-06-22T05:01:23;2.35;;;2.15;;
15643;SDS011;7921;43.586;1.408;2023-06-22T05:03:48;2.50;;;2.30;;
15643;SDS011;7921;43.586;1.408;2023-06-22T05:06:14;3.40;;;2.15;;
15643;SDS011;7921;43.586;1.408;2023-06-22T05:08:40;2.92;;;2.50;;
15643;SDS011;7921;43.586;1.408;2023-06-22T05:11:05;2.72;;;2.47;;
15643;SDS011;7921;43.586;1.408;2023-06-22T05:13:31;3.05;;;2.45;;
15643;SDS011;7921;43.586;1.408;2023-06-22T05:15:57;2.72;;;2.53;;
15643;SDS011;7921;43.586;1.408;2023-06-22T05:18:29;2.83;;;2.55;;
15643;SDS011;7921;43.586;1.408;2023-06-22T05:20:55;2.28;;;2.17;;
15643;SDS011;7921;43.586;1.408;2023-06-22T05:23:20;2.90;;;2.70;;
15643;SDS011;7921;43.586;1.408;2023-06-22T05:25:46;3.15;;;2.85;;
15643;SDS011;7921;43.586;1.408;2023-06-22T05:28:11;3.65;;;3.22;;
15643;SDS011;7921;43.586;1.408;2023-06-22T05:30:37;3.20;;;2.90;;
15643;SDS011;7921;43.586;1.408;2023-06-22T05:33:03;3.58;;;3.28;;
15643;SDS011;7921;43.586;1.408;2023-06-22T05:35:28;3.65;;;3.05;;
15643;SDS011;7921;43.586;1.408;2023-06-22T05:37:54;3.65;;;3.35;;
15643;SDS011;7921;43.586;1.408;2023-06-22T05:40:20;3.28;;;2.97;;
15643;SDS011;7921;43.586;1.408;2023-06-22T05:42:46;5.10;;;3.42;;
15643;SDS011;7921;43.586;1.408;2023-06-22T05:45:11;3.85;;;3.40;;
15643;SDS011;7921;43.586;1.408;2023-06-22T05:47:37;3.75;;;3.45;;
15643;SDS011;7921;43.586;1.408;2023-06-22T05:50:02;3.67;;;3.38;;
15643;SDS011;7921;43.586;1.408;2023-06-22T05:52:31;3.50;;;3.25;;
15643;SDS011;7921;43.586;1.408;2023-06-22T05:54:57;3.50;;;3.20;;
15643;SDS011;7921;43.586;1.408;2023-06-22T05:57:22;3.42;;;3.13;;
15643;SDS011;7921;43.586;1.408;2023-06-22T05:59:48;4.65;;;3.30;;
15643;SDS011;7921;43.586;1.408;2023-06-22T06:02:13;4.18;;;3.28;;
15643;SDS011;7921;43.586;1.408;2023-06-22T06:04:39;3.67;;;3.20;;
15643;SDS011;7921;43.586;1.408;2023-06-22T06:07:04;3.88;;;3.58;;
15643;SDS011;7921;43.586;1.408;2023-06-22T06:09:30;4.20;;;3.80;;
15643;SDS011;7921;43.586;1.408;2023-06-22T06:11:55;4.18;;;3.47;;
15643;SDS011;7921;43.586;1.408;2023-06-22T06:14:20;4.22;;;3.83;;
15643;SDS011;7921;43.586;1.408;2023-06-22T06:16:46;5.45;;;4.10;;
15643;SDS011;7921;43.586;1.408;2023-06-22T06:19:11;3.85;;;3.50;;
15643;SDS011;7921;43.586;1.408;2023-06-22T06:21:37;4.00;;;3.40;;
15643;SDS011;7921;43.586;1.408;2023-06-22T06:24:02;3.22;;;2.92;;
15643;SDS011;7921;43.586;1.408;2023-06-22T06:26:28;3.60;;;3.30;;
15643;SDS011;7921;43.586;1.408;2023-06-22T06:28:55;3.70;;;3.40;;
15643;SDS011;7921;43.586;1.408;2023-06-22T06:31:21;4.03;;;3.60;;
15643;SDS011;7921;43.586;1.408;2023-06-22T06:33:47;3.83;;;3.45;;
15643;SDS011;7921;43.586;1.408;2023-06-22T06:36:13;3.72;;;3.33;;
15643;SDS011;7921;43.586;1.408;2023-06-22T06:38:38;3.53;;;3.20;;
15643;SDS011;7921;43.586;1.408;2023-06-22T06:41:03;4.15;;;3.75;;
15643;SDS011;7921;43.586;1.408;2023-06-22T06:43:29;2.92;;;2.70;;
15643;SDS011;7921;43.586;1.408;2023-06-22T06:45:54;3.42;;;3.13;;
15643;SDS011;7921;43.586;1.408;2023-06-22T06:48:19;3.47;;;3.28;;
15643;SDS011;7921;43.586;1.408;2023-06-22T06:50:45;3.50;;;3.20;;
15643;SDS011;7921;43.586;1.408;2023-06-22T06:53:10;3.67;;;3.15;;
15643;SDS011;7921;43.586;1.408;2023-06-22T06:55:36;6.53;;;3.17;;
15643;SDS011;7921;43.586;1.408;2023-06-22T06:58:01;3.03;;;2.83;;
15643;SDS011;7921;43.586;1.408;2023-06-22T07:00:27;3.30;;;3.00;;
15643;SDS011;7921;43.586;1.408;2023-06-22T07:02:53;3.40;;;3.10;;
15643;SDS011;7921;43.586;1.408;2023-06-22T07:05:18;3.25;;;2.85;;
15643;SDS011;7921;43.586;1.408;2023-06-22T07:07:44;3.55;;;2.60;;
15643;SDS011;7921;43.586;1.408;2023-06-22T07:10:09;3.55;;;2.88;;
15643;SDS011;7921;43.586;1.408;2023-06-22T07:12:35;2.92;;;2.55;;
15643;SDS011;7921;43.586;1.408;2023-06-22T07:15:02;4.03;;;2.70;;
15643;SDS011;7921;43.586;1.408;2023-06-22T07:17:33;2.40;;;2.20;;
15643;SDS011;7921;43.586;1.408;2023-06-22T07:19:58;2.60;;;2.40;;
15643;SDS011;7921;43.586;1.408;2023-06-22T07:22:24;2.50;;;2.30;;
15643;SDS011;7921;43.586;1.408;2023-06-22T07:24:49;2.55;;;2.15;;
15643;SDS011;7921;43.586;1.408;2023-06-22T07:27:14;2.50;;;2.30;;
15643;SDS011;7921;43.586;1.408;2023-06-22T07:29:43;2.95;;;2.67;;
15643;SDS011;7921;43.586;1.408;2023-06-22T07:32:09;2.58;;;2.35;;
15643;SDS011;7921;43.586;1.408;2023-06-22T07:34:34;3.22;;;2.13;;
15643;SDS011;7921;43.586;1.408;2023-06-22T07:37:00;2.22;;;1.80;;
15643;SDS011;7921;43.586;1.408;2023-06-22T07:39:25;1.88;;;1.70;;
15643;SDS011;7921;43.586;1.408;2023-06-22T07:41:51;2.30;;;2.10;;
15643;SDS011;7921;43.586;1.408;2023-06-22T07:44:17;1.97;;;1.60;;
15643;SDS011;7921;43.586;1.408;2023-06-22T07:46:42;2.13;;;1.92;;
15643;SDS011;7921;43.586;1.408;2023-06-22T07:49:08;1.75;;;1.65;;
15643;SDS011;7921;43.586;1.408;2023-06-22T07:51:33;1.52;;;1.42;;
15643;SDS011;7921;43.586;1.408;2023-06-22T07:53:59;1.70;;;1.60;;
15643;SDS011;7921;43.586;1.408;2023-06-22T07:56:24;2.80;;;1.90;;
15643;SDS011;7921;43.586;1.408;2023-06-22T07:58:50;1.77;;;1.60;;
15643;SDS011;7921;43.586;1.408;2023-06-22T08:01:15;1.95;;;1.85;;
15643;SDS011;7921;43.586;1.408;2023-06-22T08:03:41;1.60;;;1.50;;
15643;SDS011;7921;43.586;1.408;2023-06-22T08:06:07;1.55;;;1.45;;
15643;SDS011;7921;43.586;1.408;2023-06-22T08:08:34;2.30;;;2.10;;
15643;SDS011;7921;43.586;1.408;2023-06-22T08:11:00;1.60;;;1.50;;
15643;SDS011;7921;43.586;1.408;2023-06-22T08:13:25;1.98;;;1.83;;
15643;SDS011;7921;43.586;1.408;2023-06-22T08:15:50;2.40;;;1.77;;
15643;SDS011;7921;43.586;1.408;2023-06-22T08:18:16;1.90;;;1.80;;
15643;SDS011;7921;43.586;1.408;2023-06-22T08:20:41;2.05;;;1.85;;
15643;SDS011;7921;43.586;1.408;2023-06-22T08:23:07;1.85;;;1.75;;
15643;SDS011;7921;43.586;1.408;2023-06-22T08:25:33;2.78;;;2.10;;
15643;SDS011;7921;43.586;1.408;2023-06-22T08:27:59;2.17;;;1.98;;
15643;SDS011;7921;43.586;1.408;2023-06-22T08:30:25;2.20;;;2.00;;
15643;SDS011;7921;43.586;1.408;2023-06-22T08:32:50;1.85;;;1.75;;
15643;SDS011;7921;43.586;1.408;2023-06-22T08:35:16;2.20;;;2.10;;
15643;SDS011;7921;43.586;1.408;2023-06-22T08:37:41;2.58;;;2.05;;
15643;SDS011;7921;43.586;1.408;2023-06-22T08:40:07;1.92;;;1.75;;
15643;SDS011;7921;43.586;1.408;2023-06-22T08:42:34;1.60;;;1.50;;
15643;SDS011;7921;43.586;1.408;2023-06-22T08:45:00;1.75;;;1.55;;
15643;SDS011;7921;43.586;1.408;2023-06-22T08:47:29;2.00;;;1.88;;
15643;SDS011;7921;43.586;1.408;2023-06-22T08:49:54;1.98;;;1.77;;
15643;SDS011;7921;43.586;1.408;2023-06-22T08:52:20;1.77;;;1.67;;
15643;SDS011;7921;43.586;1.408;2023-06-22T08:54:48;1.88;;;1.77;;
15643;SDS011;7921;43.586;1.408;2023-06-22T08:57:13;1.88;;;1.58;;
15643;SDS011;7921;43.586;1.408;2023-06-22T08:59:39;2.85;;;1.90;;
15643;SDS011;7921;43.586;1.408;2023-06-22T09:02:05;1.90;;;1.80;;
15643;SDS011;7921;43.586;1.408;2023-06-22T09:04:30;2.83;;;2.22;;
15643;SDS011;7921;43.586;1.408;2023-06-22T09:06:59;1.92;;;1.83;;
15643;SDS011;7921;43.586;1.408;2023-06-22T09:09:27;1.58;;;1.48;;
15643;SDS011;7921;43.586;1.408;2023-06-22T09:11:53;1.67;;;1.50;;
15643;SDS011;7921;43.586;1.408;2023-06-22T09:14:18;2.20;;;2.00;;
15643;SDS011;7921;43.586;1.408;2023-06-22T09:16:43;2.03;;;1.80;;
15643;SDS011;7921;43.586;1.408;2023-06-22T09:19:09;1.80;;;1.70;;
15643;SDS011;7921;43.586;1.408;2023-06-22T09:21:34;1.73;;;1.60;;
15643;SDS011;7921;43.586;1.408;2023-06-22T09:24:00;1.90;;;1.80;;
15643;SDS011;7921;43.586;1.408;2023-06-22T09:26:25;2.05;;;1.92;;
15643;SDS011;7921;43.586;1.408;2023-06-22T09:28:51;2.20;;;1.63;;
15643;SDS011;7921;43.586;1.408;2023-06-22T09:31:16;2.15;;;2.05;;
15643;SDS011;7921;43.586;1.408;2023-06-22T09:33:42;2.28;;;2.08;;
15643;SDS011;7921;43.586;1.408;2023-06-22T09:36:08;2.13;;;1.92;;
15643;SDS011;7921;43.586;1.408;2023-06-22T09:38:36;1.95;;;1.80;;
15643;SDS011;7921;43.586;1.408;2023-06-22T09:41:02;2.15;;;1.90;;
15643;SDS011;7921;43.586;1.408;2023-06-22T09:43:28;2.53;;;2.10;;
15643;SDS011;7921;43.586;1.408;2023-06-22T09:45:54;2.33;;;2.20;;
15643;SDS011;7921;43.586;1.408;2023-06-22T09:48:19;2.33;;;2.00;;
15643;SDS011;7921;43.586;1.408;2023-06-22T09:50:45;4.57;;;2.08;;
15643;SDS011;7921;43.586;1.408;2023-06-22T09:53:10;2.65;;;2.05;;
15643;SDS011;7921;43.586;1.408;2023-06-22T09:55:36;2.47;;;2.05;;
15643;SDS011;7921;43.586;1.408;2023-06-22T09:58:01;2.50;;;2.30;;
15643;SDS011;7921;43.586;1.408;2023-06-22T10:00:26;2.08;;;1.95;;
15643;SDS011;7921;43.586;1.408;2023-06-22T10:02:52;1.90;;;1.80;;
15643;SDS011;7921;43.586;1.408;2023-06-22T10:05:17;2.15;;;1.98;;
15643;SDS011;7921;43.586;1.408;2023-06-22T10:07:43;2.50;;;2.10;;
15643;SDS011;7921;43.586;1.408;2023-06-22T10:10:11;2.22;;;2.13;;
15643;SDS011;7921;43.586;1.408;2023-06-22T10:12:40;2.20;;;2.00;;
15643;SDS011;7921;43.586;1.408;2023-06-22T10:15:11;2.03;;;1.92;;
15643;SDS011;7921;43.586;1.408;2023-06-22T10:17:37;3.80;;;2.58;;
15643;SDS011;7921;43.586;1.408;2023-06-22T10:20:02;3.78;;;2.00;;
15643;SDS011;7921;43.586;1.408;2023-06-22T10:22:37;2.28;;;2.08;;
15643;SDS011;7921;43.586;1.408;2023-06-22T10:25:06;2.90;;;1.95;;
15643;SDS011;7921;43.586;1.408;2023-06-22T10:27:32;1.90;;;1.80;;
15643;SDS011;7921;43.586;1.408;2023-06-22T10:29:58;2.05;;;1.85;;
15643;SDS011;7921;43.586;1.408;2023-06-22T10:32:23;1.80;;;1.67;;
15643;SDS011;7921;43.586;1.408;2023-06-22T10:34:49;3.03;;;2.05;;
15643;SDS011;7921;43.586;1.408;2023-06-22T10:37:14;1.80;;;1.70;;
15643;SDS011;7921;43.586;1.408;2023-06-22T10:39:39;3.08;;;1.85;;
15643;SDS011;7921;43.586;1.408;2023-06-22T10:42:05;2.03;;;1.83;;
15643;SDS011;7921;43.586;1.408;2023-06-22T10:44:30;2.10;;;1.90;;
15643;SDS011;7921;43.586;1.408;2023-06-22T10:46:56;1.90;;;1.80;;
15643;SDS011;7921;43.586;1.408;2023-06-22T10:49:21;1.73;;;1.50;;
15643;SDS011;7921;43.586;1.408;2023-06-22T10:51:47;4.13;;;1.90;;
15643;SDS011;7921;43.586;1.408;2023-06-22T10:54:12;1.88;;;1.77;;
15643;SDS011;7921;43.586;1.408;2023-06-22T10:56:39;2.10;;;1.90;;
15643;SDS011;7921;43.586;1.408;2023-06-22T10:59:05;3.47;;;1.88;;
15643;SDS011;7921;43.586;1.408;2023-06-22T11:01:30;2.13;;;1.92;;
15643;SDS011;7921;43.586;1.408;2023-06-22T11:03:56;1.75;;;1.65;;
15643;SDS011;7921;43.586;1.408;2023-06-22T11:06:22;2.30;;;2.10;;
15643;SDS011;7921;43.586;1.408;2023-06-22T11:08:47;1.75;;;1.65;;
15643;SDS011;7921;43.586;1.408;2023-06-22T11:11:13;2.72;;;2.00;;
15643;SDS011;7921;43.586;1.408;2023-06-22T11:13:38;2.25;;;2.05;;
15643;SDS011;7921;43.586;1.408;2023-06-22T11:16:03;1.55;;;1.45;;
15643;SDS011;7921;43.586;1.408;2023-06-22T11:18:30;2.17;;;2.00;;
15643;SDS011;7921;43.586;1.408;2023-06-22T11:20:56;2.13;;;1.77;;
15643;SDS011;7921;43.586;1.408;2023-06-22T11:23:21;2.50;;;2.17;;
15643;SDS011;7921;43.586;1.408;2023-06-22T11:25:47;2.17;;;1.88;;
15643;SDS011;7921;43.586;1.408;2023-06-22T11:28:12;2.15;;;1.95;;
15643;SDS011;7921;43.586;1.408;2023-06-22T11:30:38;2.20;;;2.00;;
15643;SDS011;7921;43.586;1.408;2023-06-22T11:33:03;2.45;;;2.22;;
15643;SDS011;7921;43.586;1.408;2023-06-22T11:35:28;2.00;;;1.80;;
15643;SDS011;7921;43.586;1.408;2023-06-22T11:37:54;2.42;;;1.88;;
15643;SDS011;7921;43.586;1.408;2023-06-22T11:40:21;2.13;;;1.92;;
15643;SDS011;7921;43.586;1.408;2023-06-22T11:42:47;2.28;;;2.10;;
15643;SDS011;7921;43.586;1.408;2023-06-22T11:45:13;2.13;;;1.92;;
15643;SDS011;7921;43.586;1.408;2023-06-22T11:47:38;2.50;;;1.80;;
15643;SDS011;7921;43.586;1.408;2023-06-22T11:50:04;2.30;;;2.10;;
15643;SDS011;7921;43.586;1.408;2023-06-22T11:52:30;2.28;;;1.85;;
15643;SDS011;7921;43.586;1.408;2023-06-22T11:54:56;2.10;;;1.90;;
15643;SDS011;7921;43.586;1.408;2023-06-22T11:57:21;3.05;;;1.77;;
15643;SDS011;7921;43.586;1.408;2023-06-22T11:59:46;2.20;;;2.00;;
15643;SDS011;7921;43.586;1.408;2023-06-22T12:02:12;2.03;;;1.92;;
15643;SDS011;7921;43.586;1.408;2023-06-22T12:04:37;1.73;;;1.55;;
15643;SDS011;7921;43.586;1.408;2023-06-22T12:07:03;2.08;;;1.65;;
15643;SDS011;7921;43.586;1.408;2023-06-22T12:09:28;1.80;;;1.70;;
15643;SDS011;7921;43.586;1.408;2023-06-22T12:11:53;3.03;;;1.60;;
15643;SDS011;7921;43.586;1.408;2023-06-22T12:14:19;1.60;;;1.50;;
15643;SDS011;7921;43.586;1.408;2023-06-22T12:16:44;2.03;;;1.85;;
15643;SDS011;7921;43.586;1.408;2023-06-22T12:19:10;1.60;;;1.50;;
15643;SDS011;7921;43.586;1.408;2023-06-22T12:21:36;2.30;;;1.30;;
15643;SDS011;7921;43.586;1.408;2023-06-22T12:24:02;1.73;;;1.63;;
15643;SDS011;7921;43.586;1.408;2023-06-22T12:26:28;2.10;;;1.48;;
15643;SDS011;7921;43.586;1.408;2023-06-22T12:28:53;1.60;;;1.50;;
15643;SDS011;7921;43.586;1.408;2023-06-22T12:31:18;1.67;;;1.58;;
15643;SDS011;7921;43.586;1.408;2023-06-22T12:33:44;1.60;;;1.00;;
15643;SDS011;7921;43.586;1.408;2023-06-22T12:36:09;1.50;;;1.40;;
15643;SDS011;7921;43.586;1.408;2023-06-22T12:38:35;1.80;;;1.40;;
15643;SDS011;7921;43.586;1.408;2023-06-22T12:41:00;1.63;;;1.52;;
15643;SDS011;7921;43.586;1.408;2023-06-22T12:43:25;1.50;;;1.40;;
15643;SDS011;7921;43.586;1.408;2023-06-22T12:45:51;1.48;;;1.38;;
15643;SDS011;7921;43.586;1.408;2023-06-22T12:48:16;1.40;;;1.30;;
15643;SDS011;7921;43.586;1.408;2023-06-22T12:50:42;2.65;;;1.60;;
15643;SDS011;7921;43.586;1.408;2023-06-22T12:53:07;1.48;;;1.38;;
15643;SDS011;7921;43.586;1.408;2023-06-22T12:55:33;1.42;;;1.33;;
15643;SDS011;7921;43.586;1.408;2023-06-22T12:57:58;1.42;;;1.30;;
15643;SDS011;7921;43.586;1.408;2023-06-22T13:00:23;1.63;;;1.52;;
15643;SDS011;7921;43.586;1.408;2023-06-22T13:02:49;1.60;;;1.50;;
15643;SDS011;7921;43.586;1.408;2023-06-22T13:05:14;1.67;;;1.50;;
15643;SDS011;7921;43.586;1.408;2023-06-22T13:07:39;1.48;;;1.38;;
15643;SDS011;7921;43.586;1.408;2023-06-22T13:10:07;2.05;;;1.35;;
15643;SDS011;7921;43.586;1.408;2023-06-22T13:12:32;1.48;;;1.38;;
15643;SDS011;7921;43.586;1.408;2023-06-22T13:14:58;1.55;;;1.40;;
15643;SDS011;7921;43.586;1.408;2023-06-22T13:17:23;1.45;;;1.35;;
15643;SDS011;7921;43.586;1.408;2023-06-22T13:19:49;1.52;;;1.42;;
15643;SDS011;7921;43.586;1.408;2023-06-22T13:22:27;1.65;;;1.30;;
15643;SDS011;7921;43.586;1.408;2023-06-22T13:24:54;2.03;;;1.85;;
15643;SDS011;7921;43.586;1.408;2023-06-22T13:27:19;1.70;;;1.60;;
15643;SDS011;7921;43.586;1.408;2023-06-22T13:29:44;2.00;;;1.90;;
15643;SDS011;7921;43.586;1.408;2023-06-22T13:32:10;1.58;;;1.48;;
15643;SDS011;7921;43.586;1.408;2023-06-22T13:34:35;1.90;;;1.70;;
15643;SDS011;7921;43.586;1.408;2023-06-22T13:37:00;1.50;;;1.40;;
15643;SDS011;7921;43.586;1.408;2023-06-22T13:39:26;2.05;;;1.67;;
15643;SDS011;7921;43.586;1.408;2023-06-22T13:41:51;1.60;;;1.50;;
15643;SDS011;7921;43.586;1.408;2023-06-22T13:44:17;1.70;;;1.60;;
15643;SDS011;7921;43.586;1.408;2023-06-22T13:46:42;1.70;;;1.52;;
15643;SDS011;7921;43.586;1.408;2023-06-22T13:49:07;2.00;;;1.50;;
15643;SDS011;7921;43.586;1.408;2023-06-22T13:51:33;2.55;;;1.48;;
15643;SDS011;7921;43.586;1.408;2023-06-22T13:53:58;1.63;;;1.52;;
15643;SDS011;7921;43.586;1.408;2023-06-22T13:56:23;2.42;;;1.85;;
15643;SDS011;7921;43.586;1.408;2023-06-22T13:58:49;1.98;;;1.85;;
15643;SDS011;7921;43.586;1.408;2023-06-22T14:01:14;2.15;;;1.55;;
15643;SDS011;7921;43.586;1.408;2023-06-22T14:03:39;2.97;;;1.77;;
15643;SDS011;7921;43.586;1.408;2023-06-22T14:06:05;1.88;;;1.77;;
15643;SDS011;7921;43.586;1.408;2023-06-22T14:08:31;1.98;;;1.70;;
15643;SDS011;7921;43.586;1.408;2023-06-22T14:10:56;2.30;;;1.90;;
15643;SDS011;7921;43.586;1.408;2023-06-22T14:13:22;2.38;;;2.00;;
15643;SDS011;7921;43.586;1.408;2023-06-22T14:15:47;1.75;;;1.65;;
15643;SDS011;7921;43.586;1.408;2023-06-22T14:18:13;2.58;;;2.10;;
15643;SDS011;7921;43.586;1.408;2023-06-22T14:20:39;1.85;;;1.75;;
15643;SDS011;7921;43.586;1.408;2023-06-22T14:23:05;2.30;;;1.83;;
15643;SDS011;7921;43.586;1.408;2023-06-22T14:25:30;2.30;;;2.08;;
15643;SDS011;7921;43.586;1.408;2023-06-22T14:27:56;2.25;;;2.05;;
15643;SDS011;7921;43.586;1.408;2023-06-22T14:30:21;2.50;;;2.30;;
15643;SDS011;7921;43.586;1.408;2023-06-22T14:32:46;3.78;;;2.13;;
15643;SDS011;7921;43.586;1.408;2023-06-22T14:35:12;2.25;;;2.05;;
15643;SDS011;7921;43.586;1.408;2023-06-22T14:37:37;1.85;;;1.73;;
15643;SDS011;7921;43.586;1.408;2023-06-22T14:40:03;3.05;;;2.00;;
15643;SDS011;7921;43.586;1.408;2023-06-22T14:42:28;2.15;;;1.92;;
15643;SDS011;7921;43.586;1.408;2023-06-22T14:44:55;3.35;;;1.98;;
15643;SDS011;7921;43.586;1.408;2023-06-22T14:47:20;1.92;;;1.83;;
15643;SDS011;7921;43.586;1.408;2023-06-22T14:49:47;3.35;;;1.83;;
15643;SDS011;7921;43.586;1.408;2023-06-22T14:52:13;2.00;;;1.90;;
15643;SDS011;7921;43.586;1.408;2023-06-22T14:54:39;2.05;;;1.85;;
15643;SDS011;7921;43.586;1.408;2023-06-22T14:57:04;2.20;;;1.98;;
15643;SDS011;7921;43.586;1.408;2023-06-22T14:59:30;3.08;;;2.15;;
15643;SDS011;7921;43.586;1.408;2023-06-22T15:01:55;2.17;;;1.98;;
15643;SDS011;7921;43.586;1.408;2023-06-22T15:04:20;2.30;;;2.10;;